Time;durP1;ratioP1;P1;durP2;ratioP2;P2;SDS_P1;SDS_P2;PMS_P1;PMS_P2;Temp;Humidity;BMP_temperature;BMP_pressure;BME280_temperature;BME280_humidity;BME280_pressure;Samples;Min_cycle;Max_cycle;Signal;HPM_P1;HPM_P2
2021/06/03 00:00:09;;;;;;;2.30;2.15;;;14.30;99.90;;;;;;4940359;28;20509;-74
2021/06/03 00:02:35;;;;;;;3.58;2.75;;;14.30;99.90;;;;;;4946339;28;20398;-74
2021/06/03 00:05:01;;;;;;;2.80;2.60;;;14.30;99.90;;;;;;4944435;28;20409;-73
2021/06/03 00:07:27;;;;;;;2.70;2.50;;;14.20;99.90;;;;;;4941129;28;20446;-73
2021/06/03 00:09:52;;;;;;;3.10;2.80;;;14.20;99.90;;;;;;4943478;28;20452;-74
2021/06/03 00:12:18;;;;;;;2.97;2.73;;;14.10;99.90;;;;;;4927123;28;20418;-73
2021/06/03 00:14:43;;;;;;;2.70;2.50;;;14.00;99.90;;;;;;4958032;28;20419;-74
2021/06/03 00:17:09;;;;;;;3.80;2.83;;;14.00;99.90;;;;;;4943702;28;20416;-73
2021/06/03 00:19:35;;;;;;;3.08;2.50;;;13.90;99.90;;;;;;4942664;28;20979;-73
2021/06/03 00:22:00;;;;;;;5.03;2.93;;;13.90;99.90;;;;;;4917443;28;20412;-74
2021/06/03 00:24:26;;;;;;;2.55;2.35;;;13.90;99.90;;;;;;4933838;28;20566;-73
2021/06/03 00:26:52;;;;;;;3.07;2.60;;;13.90;99.90;;;;;;4929435;28;20402;-73
2021/06/03 00:29:18;;;;;;;2.80;2.60;;;13.80;99.90;;;;;;4907500;28;20444;-73
2021/06/03 00:31:43;;;;;;;2.67;2.47;;;13.80;99.90;;;;;;4942441;28;20786;-73
2021/06/03 00:34:09;;;;;;;2.50;2.30;;;13.80;99.90;;;;;;4953994;28;20412;-73
2021/06/03 00:36:35;;;;;;;2.87;2.57;;;13.70;99.90;;;;;;4938388;28;20975;-72
2021/06/03 00:39:00;;;;;;;3.15;2.75;;;13.70;99.90;;;;;;4917704;28;20415;-73
2021/06/03 00:41:26;;;;;;;2.67;2.47;;;13.70;99.90;;;;;;4934972;28;20420;-72
2021/06/03 00:43:52;;;;;;;2.75;2.53;;;13.60;99.90;;;;;;4935428;28;20432;-73
2021/06/03 00:46:17;;;;;;;2.80;2.60;;;13.70;99.90;;;;;;4919124;28;20434;-73
2021/06/03 00:48:43;;;;;;;2.75;2.55;;;13.60;99.90;;;;;;4971119;28;20783;-73
2021/06/03 00:51:09;;;;;;;6.10;2.90;;;13.60;99.90;;;;;;4927105;28;20475;-73
2021/06/03 00:53:39;;;;;;;3.97;2.92;;;13.60;99.90;;;;;;4916048;28;21033;-73
2021/06/03 00:56:05;;;;;;;2.80;2.60;;;13.50;99.90;;;;;;4933390;28;20403;-73
2021/06/03 00:58:34;;;;;;;5.50;3.03;;;13.50;99.90;;;;;;4896946;29;20512;-73
2021/06/03 01:01:00;;;;;;;3.13;2.80;;;13.50;99.90;;;;;;4926084;28;20940;-74
2021/06/03 01:03:26;;;;;;;3.40;3.03;;;13.40;99.90;;;;;;4942616;28;20397;-73
2021/06/03 01:05:59;;;;;;;3.22;2.55;;;13.40;99.90;;;;;;4962106;28;20520;-75
2021/06/03 01:08:26;;;;;;;3.00;2.70;;;13.30;99.90;;;;;;4934876;28;20441;-74
2021/06/03 01:11:07;;;;;;;2.90;2.70;;;13.20;99.90;;;;;;4929371;28;20436;-75
2021/06/03 01:13:57;;;;;;;3.17;2.78;;;13.20;99.90;;;;;;4933575;28;20512;-75
2021/06/03 01:16:25;;;;;;;4.97;2.90;;;13.20;99.90;;;;;;4942573;28;20785;-76
2021/06/03 01:18:52;;;;;;;2.50;2.30;;;13.20;99.90;;;;;;4967051;28;20408;-75
2021/06/03 01:21:49;;;;;;;3.25;2.90;;;13.10;99.90;;;;;;4944646;28;20404;-75
2021/06/03 01:24:36;;;;;;;3.08;2.78;;;13.10;99.90;;;;;;4951788;28;20883;-75
2021/06/03 01:27:12;;;;;;;2.88;2.60;;;13.00;99.90;;;;;;4965481;28;20405;-75
2021/06/03 01:30:00;;;;;;;2.88;2.58;;;13.00;99.90;;;;;;4918165;29;20392;-75
2021/06/03 01:32:27;;;;;;;3.03;2.72;;;13.00;99.90;;;;;;4960392;28;21131;-75
2021/06/03 01:34:53;;;;;;;3.53;2.88;;;12.90;99.90;;;;;;4909155;28;20463;-75
2021/06/03 01:37:19;;;;;;;3.97;2.90;;;12.90;99.90;;;;;;4951477;28;20409;-76
2021/06/03 01:39:45;;;;;;;3.45;2.85;;;12.80;99.90;;;;;;4948333;28;20406;-75
2021/06/03 01:42:12;;;;;;;3.00;2.70;;;12.80;99.90;;;;;;4940041;28;21011;-75
2021/06/03 01:44:38;;;;;;;3.25;2.95;;;12.70;99.90;;;;;;4924715;28;20969;-78
2021/06/03 01:47:04;;;;;;;3.00;2.70;;;12.70;99.90;;;;;;4955227;28;20410;-75
2021/06/03 01:49:30;;;;;;;3.17;2.87;;;12.60;99.90;;;;;;4941372;28;20533;-75
2021/06/03 01:52:00;;;;;;;3.60;2.90;;;12.60;99.90;;;;;;4940423;28;20417;-75
2021/06/03 01:54:28;;;;;;;2.87;2.60;;;12.50;99.90;;;;;;4928112;28;20469;-74
2021/06/03 01:56:56;;;;;;;2.95;2.75;;;12.50;99.90;;;;;;4933256;28;20412;-75
2021/06/03 01:59:23;;;;;;;2.78;2.58;;;12.50;99.90;;;;;;4956687;28;20413;-75
2021/06/03 02:01:52;;;;;;;3.00;2.70;;;12.40;99.90;;;;;;4934047;28;20494;-76
2021/06/03 02:04:18;;;;;;;4.83;2.80;;;12.40;99.90;;;;;;4932234;28;20923;-75
2021/06/03 02:06:43;;;;;;;3.30;2.92;;;12.30;99.90;;;;;;4942346;28;20775;-75
2021/06/03 02:09:10;;;;;;;3.38;2.80;;;12.30;99.90;;;;;;4961979;28;20417;-74
2021/06/03 02:11:38;;;;;;;6.20;3.22;;;12.20;99.90;;;;;;4948104;28;20406;-74
2021/06/03 02:14:03;;;;;;;3.30;3.00;;;12.20;99.90;;;;;;4942424;28;20425;-74
2021/06/03 02:16:50;;;;;;;3.53;2.95;;;12.20;99.90;;;;;;4927078;28;20418;-75
2021/06/03 02:19:20;;;;;;;3.33;2.97;;;12.20;99.90;;;;;;4913274;28;20419;-75
2021/06/03 02:21:51;;;;;;;3.97;3.10;;;12.10;99.90;;;;;;4929038;28;20431;-76
2021/06/03 02:24:18;;;;;;;4.32;3.00;;;12.10;99.90;;;;;;4907419;29;20787;-74
2021/06/03 02:26:46;;;;;;;3.03;2.83;;;12.10;99.90;;;;;;4943660;28;20556;-75
2021/06/03 02:29:15;;;;;;;4.00;3.30;;;12.00;99.90;;;;;;4913264;28;21084;-78
2021/06/03 02:31:54;;;;;;;3.47;3.17;;;12.00;99.90;;;;;;4959597;28;20421;-75
2021/06/03 02:34:20;;;;;;;3.72;3.38;;;12.00;99.90;;;;;;4915928;28;20430;-76
2021/06/03 02:36:46;;;;;;;3.40;3.10;;;11.90;99.90;;;;;;4961305;28;20406;-75
2021/06/03 02:39:12;;;;;;;5.22;3.05;;;11.90;99.90;;;;;;4920837;28;20423;-75
2021/06/03 02:41:38;;;;;;;3.63;3.10;;;11.90;99.90;;;;;;4958485;28;20424;-78
2021/06/03 02:44:05;;;;;;;3.50;3.20;;;11.90;99.90;;;;;;4944501;28;20434;-75
2021/06/03 02:46:31;;;;;;;3.47;3.13;;;11.80;99.90;;;;;;4973743;28;21866;-77
2021/06/03 02:49:01;;;;;;;3.10;2.87;;;11.90;99.90;;;;;;4923828;28;20408;-74
2021/06/03 02:51:27;;;;;;;3.50;3.20;;;11.90;99.90;;;;;;4960221;28;20780;-79
2021/06/03 02:53:54;;;;;;;3.30;3.03;;;11.80;99.90;;;;;;4929488;28;20957;-78
2021/06/03 02:56:29;;;;;;;3.40;3.10;;;11.90;99.90;;;;;;4933288;28;20433;-74
2021/06/03 02:58:55;;;;;;;3.30;2.95;;;11.80;99.90;;;;;;4928957;28;20466;-78
2021/06/03 03:01:21;;;;;;;4.27;3.10;;;11.80;99.90;;;;;;4965029;28;20447;-75
2021/06/03 03:03:48;;;;;;;3.35;3.05;;;11.80;99.90;;;;;;4919122;28;20411;-75
2021/06/03 03:06:15;;;;;;;3.60;3.30;;;11.80;99.90;;;;;;4947979;28;20415;-75
2021/06/03 03:08:42;;;;;;;4.05;3.35;;;11.80;99.90;;;;;;4947342;28;20394;-75
2021/06/03 03:11:09;;;;;;;3.33;3.03;;;11.70;99.90;;;;;;4939030;28;20935;-75
2021/06/03 03:13:40;;;;;;;3.27;3.00;;;11.60;99.90;;;;;;4947375;28;20404;-77
2021/06/03 03:16:06;;;;;;;3.13;2.83;;;11.60;99.90;;;;;;4942619;28;20410;-75
2021/06/03 03:18:32;;;;;;;4.70;3.45;;;11.60;99.90;;;;;;4960698;28;20399;-73
2021/06/03 03:20:58;;;;;;;3.60;2.90;;;11.50;99.90;;;;;;4960520;28;20407;-76
2021/06/03 03:23:24;;;;;;;3.22;2.92;;;11.50;99.90;;;;;;4936246;28;20988;-75
2021/06/03 03:25:53;;;;;;;3.85;3.17;;;11.50;99.90;;;;;;4906508;28;20411;-76
2021/06/03 03:28:20;;;;;;;6.90;5.93;;;11.50;99.90;;;;;;4949727;28;20437;-73
2021/06/03 03:30:47;;;;;;;3.70;3.28;;;11.60;99.90;;;;;;4913815;28;20938;-76
2021/06/03 03:33:20;;;;;;;3.67;3.10;;;11.60;99.90;;;;;;4923390;28;20415;-77
2021/06/03 03:35:46;;;;;;;3.35;3.05;;;11.70;99.90;;;;;;4946965;28;20928;-73
2021/06/03 03:38:14;;;;;;;3.57;3.10;;;11.70;99.90;;;;;;4917348;28;20414;-73
2021/06/03 03:40:39;;;;;;;5.57;3.13;;;11.70;99.90;;;;;;4919305;28;20434;-76
2021/06/03 03:43:07;;;;;;;3.97;3.55;;;11.80;99.90;;;;;;4943325;28;21115;-76
2021/06/03 03:45:34;;;;;;;3.50;3.20;;;11.80;99.90;;;;;;4956386;28;20402;-75
2021/06/03 03:48:03;;;;;;;3.60;3.25;;;11.90;99.90;;;;;;4907794;28;20416;-78
2021/06/03 03:50:30;;;;;;;4.97;3.20;;;11.90;99.90;;;;;;4921614;28;20450;-75
2021/06/03 03:52:57;;;;;;;3.42;3.10;;;11.90;99.90;;;;;;4919872;28;20706;-76
2021/06/03 03:55:23;;;;;;;3.38;3.00;;;12.00;99.90;;;;;;4898817;29;20443;-74
2021/06/03 03:57:50;;;;;;;3.03;2.75;;;12.00;99.90;;;;;;4912355;28;21047;-76
2021/06/03 04:00:21;;;;;;;3.50;3.20;;;12.10;99.90;;;;;;4926729;28;20548;-76
2021/06/03 04:02:55;;;;;;;3.38;3.10;;;12.20;99.90;;;;;;4915805;28;20451;-77
2021/06/03 04:05:25;;;;;;;3.43;2.80;;;12.20;99.90;;;;;;4952629;28;20488;-76
2021/06/03 04:07:51;;;;;;;3.10;2.90;;;12.30;99.90;;;;;;4948260;28;20424;-75
2021/06/03 04:10:19;;;;;;;3.60;3.30;;;12.40;99.90;;;;;;4950345;28;20458;-75
2021/06/03 04:12:45;;;;;;;3.83;3.42;;;12.50;99.90;;;;;;4959857;28;20456;-74
2021/06/03 04:15:12;;;;;;;3.50;3.00;;;12.60;99.90;;;;;;4930589;28;20443;-75
2021/06/03 04:17:38;;;;;;;3.40;3.10;;;12.60;99.90;;;;;;4929287;28;20427;-76
2021/06/03 04:20:05;;;;;;;3.20;2.90;;;12.70;99.90;;;;;;4948593;28;21058;-75
2021/06/03 04:22:33;;;;;;;3.15;2.95;;;12.80;99.90;;;;;;4950189;28;20434;-75
2021/06/03 04:25:00;;;;;;;3.33;3.03;;;12.90;99.90;;;;;;4939545;28;20413;-75
2021/06/03 04:27:25;;;;;;;3.20;2.90;;;13.00;99.90;;;;;;4951356;28;20392;-74
2021/06/03 04:29:51;;;;;;;3.43;2.70;;;13.10;99.90;;;;;;4931847;28;20413;-75
2021/06/03 04:32:17;;;;;;;5.07;3.10;;;13.20;99.90;;;;;;4941939;28;20410;-75
2021/06/03 04:34:43;;;;;;;3.22;2.92;;;13.30;99.90;;;;;;4929629;28;20432;-76
2021/06/03 04:37:10;;;;;;;2.93;2.73;;;13.40;99.90;;;;;;4940635;28;20919;-74
2021/06/03 04:39:36;;;;;;;4.22;2.80;;;13.50;99.90;;;;;;4928975;28;20408;-76
2021/06/03 04:42:01;;;;;;;3.60;2.93;;;13.60;99.90;;;;;;4934081;28;20800;-76
2021/06/03 04:44:27;;;;;;;3.20;3.00;;;13.80;99.90;;;;;;4941965;28;20499;-76
2021/06/03 04:46:53;;;;;;;3.55;2.67;;;13.80;99.90;;;;;;4929330;28;20466;-76
2021/06/03 04:49:18;;;;;;;3.60;3.20;;;14.00;99.90;;;;;;4926164;28;20487;-75
2021/06/03 04:51:44;;;;;;;3.85;2.92;;;14.10;99.90;;;;;;4940712;28;20414;-75
2021/06/03 04:54:12;;;;;;;3.45;3.15;;;14.10;99.90;;;;;;4924834;28;20417;-76
2021/06/03 04:56:37;;;;;;;3.35;3.00;;;14.30;99.90;;;;;;4922922;28;20406;-77
2021/06/03 04:59:03;;;;;;;3.10;2.80;;;14.40;99.90;;;;;;4941428;28;20475;-76
2021/06/03 05:01:29;;;;;;;3.17;2.88;;;14.50;99.90;;;;;;4933521;28;20399;-77
2021/06/03 05:03:54;;;;;;;3.23;2.80;;;14.60;99.90;;;;;;4894584;28;20462;-76
2021/06/03 05:06:20;;;;;;;3.22;2.92;;;14.70;99.90;;;;;;4952127;28;20402;-75
2021/06/03 05:08:46;;;;;;;3.33;3.03;;;14.90;99.90;;;;;;4938975;28;20423;-75
2021/06/03 05:11:12;;;;;;;3.30;3.00;;;15.00;99.90;;;;;;4930270;28;20402;-76
2021/06/03 05:13:38;;;;;;;3.63;3.05;;;15.10;99.90;;;;;;4947230;28;20961;-76
2021/06/03 05:16:04;;;;;;;3.75;2.92;;;15.20;99.90;;;;;;4927817;28;20408;-76
2021/06/03 05:18:29;;;;;;;3.47;3.17;;;15.40;99.90;;;;;;4946744;28;20394;-75
2021/06/03 05:20:55;;;;;;;3.70;3.17;;;15.50;99.90;;;;;;4946189;28;20406;-76
2021/06/03 05:23:22;;;;;;;3.20;2.90;;;15.60;99.90;;;;;;4945409;28;20881;-75
2021/06/03 05:25:48;;;;;;;3.50;2.92;;;15.70;99.90;;;;;;4907929;28;20898;-75
2021/06/03 05:28:13;;;;;;;3.60;3.03;;;15.90;99.90;;;;;;4961100;28;20429;-75
2021/06/03 05:30:39;;;;;;;3.83;2.90;;;15.90;99.90;;;;;;4942793;28;20891;-75
2021/06/03 05:33:05;;;;;;;3.42;2.85;;;16.10;99.90;;;;;;4934765;28;20410;-75
2021/06/03 05:35:31;;;;;;;3.30;3.00;;;16.20;99.90;;;;;;4936310;28;20414;-76
2021/06/03 05:37:57;;;;;;;3.10;2.80;;;16.30;99.90;;;;;;4945460;28;20898;-75
2021/06/03 05:40:24;;;;;;;3.20;2.92;;;16.40;99.90;;;;;;4939105;28;20963;-75
2021/06/03 05:42:51;;;;;;;3.67;3.08;;;16.50;99.90;;;;;;4942024;28;20425;-75
2021/06/03 05:45:17;;;;;;;3.92;3.20;;;16.60;99.90;;;;;;4928578;28;20410;-76
2021/06/03 05:47:42;;;;;;;3.77;3.17;;;16.60;99.90;;;;;;4965843;28;20755;-76
2021/06/03 05:50:10;;;;;;;3.00;2.70;;;16.80;99.90;;;;;;4939769;28;20409;-76
2021/06/03 05:52:36;;;;;;;3.30;3.00;;;16.90;99.90;;;;;;4950004;28;20402;-77
2021/06/03 05:55:04;;;;;;;2.85;2.65;;;17.10;99.90;;;;;;4963862;28;20418;-76
2021/06/03 05:57:29;;;;;;;2.90;2.63;;;17.20;99.90;;;;;;4948885;28;21135;-76
2021/06/03 05:59:56;;;;;;;4.15;3.20;;;17.40;99.90;;;;;;4932213;28;20411;-76
2021/06/03 06:02:30;;;;;;;2.55;2.35;;;17.60;99.90;;;;;;4950554;28;20955;-77
2021/06/03 06:07:40;;;;;;;2.90;2.60;;;17.70;99.90;;;;;;4962194;28;20430;-77
2021/06/03 06:10:06;;;;;;;2.70;2.50;;;17.90;99.90;;;;;;4962393;28;20429;-76
2021/06/03 06:12:32;;;;;;;3.47;2.97;;;18.10;99.90;;;;;;4924587;28;20407;-76
2021/06/03 06:14:58;;;;;;;2.80;2.60;;;18.20;99.90;;;;;;4959210;28;20420;-76
2021/06/03 06:17:23;;;;;;;3.63;3.00;;;18.40;99.90;;;;;;4927374;28;20499;-76
2021/06/03 06:19:49;;;;;;;3.67;3.00;;;18.50;99.90;;;;;;4942447;28;20426;-76
2021/06/03 06:22:15;;;;;;;4.00;2.73;;;18.60;99.90;;;;;;4961040;28;20796;-76
2021/06/03 06:24:41;;;;;;;3.83;2.87;;;18.90;99.90;;;;;;4959964;28;20894;-76
2021/06/03 06:27:07;;;;;;;2.90;2.70;;;19.10;99.90;;;;;;4934556;28;20489;-76
2021/06/03 06:29:33;;;;;;;2.58;2.38;;;19.20;99.90;;;;;;4963066;28;20406;-78
2021/06/03 06:31:58;;;;;;;2.70;2.43;;;19.30;99.90;;;;;;4944784;28;20393;-76
2021/06/03 06:34:24;;;;;;;2.60;2.40;;;19.40;99.90;;;;;;4933240;28;20410;-76
2021/06/03 06:36:49;;;;;;;2.60;2.40;;;19.50;99.90;;;;;;4925524;28;20400;-76
2021/06/03 06:39:17;;;;;;;2.97;2.67;;;19.70;99.90;;;;;;4930761;28;20458;-76
2021/06/03 06:41:44;;;;;;;2.85;2.65;;;19.90;99.90;;;;;;4914392;29;20404;-76
2021/06/03 06:44:10;;;;;;;5.07;2.40;;;20.00;99.90;;;;;;4913549;28;20400;-77
2021/06/03 06:46:36;;;;;;;3.10;2.80;;;20.10;99.90;;;;;;4935595;28;20408;-76
2021/06/03 06:49:01;;;;;;;3.00;2.70;;;20.20;99.90;;;;;;4947994;28;20914;-77
2021/06/03 06:51:27;;;;;;;2.95;2.70;;;20.40;99.90;;;;;;4963869;28;20445;-77
2021/06/03 06:53:53;;;;;;;2.90;2.70;;;20.50;99.90;;;;;;4931944;28;20421;-76
2021/06/03 06:56:18;;;;;;;6.35;2.65;;;20.60;99.90;;;;;;4932472;28;20471;-76
2021/06/03 06:58:44;;;;;;;3.30;2.30;;;20.60;99.90;;;;;;4932330;28;20401;-77
2021/06/03 07:01:10;;;;;;;2.60;2.40;;;20.90;99.90;;;;;;4942609;28;20404;-77
2021/06/03 07:03:35;;;;;;;2.63;2.43;;;21.10;99.90;;;;;;4927261;28;20407;-76
2021/06/03 07:06:01;;;;;;;3.00;2.37;;;21.30;99.90;;;;;;4937314;28;20820;-76
2021/06/03 07:08:27;;;;;;;2.15;1.98;;;21.40;99.90;;;;;;4951880;28;20412;-76
2021/06/03 07:10:54;;;;;;;3.30;2.70;;;21.60;99.90;;;;;;4945436;28;21122;-79
2021/06/03 07:13:21;;;;;;;2.42;2.22;;;21.70;99.90;;;;;;4929697;28;20417;-76
2021/06/03 07:15:46;;;;;;;2.60;2.40;;;21.80;99.90;;;;;;4938309;28;20957;-76
2021/06/03 07:18:12;;;;;;;3.50;2.50;;;22.00;99.90;;;;;;4928820;28;20419;-79
2021/06/03 07:20:38;;;;;;;4.65;2.30;;;22.40;99.90;;;;;;4928900;28;20407;-79
2021/06/03 07:23:04;;;;;;;3.60;2.30;;;22.60;99.90;;;;;;4928686;28;20408;-77
2021/06/03 07:25:30;;;;;;;2.72;2.38;;;22.90;99.90;;;;;;4941586;28;20410;-78
2021/06/03 07:27:56;;;;;;;2.22;2.10;;;23.00;99.90;;;;;;4935719;28;20429;-77
2021/06/03 07:30:24;;;;;;;5.10;2.53;;;23.20;99.90;;;;;;4931316;28;20828;-76
2021/06/03 07:32:50;;;;;;;2.47;2.28;;;23.40;99.90;;;;;;4939761;28;20435;-77
2021/06/03 07:35:16;;;;;;;2.08;1.98;;;23.70;99.90;;;;;;4911531;28;20868;-77
2021/06/03 07:37:42;;;;;;;2.35;2.13;;;23.90;99.90;;;;;;4942456;28;20398;-78
2021/06/03 07:40:10;;;;;;;3.28;2.40;;;23.90;99.90;;;;;;4946727;28;20418;-78
2021/06/03 07:42:36;;;;;;;3.33;2.33;;;23.90;99.70;;;;;;4933287;28;20462;-78
2021/06/03 07:45:06;;;;;;;2.42;2.22;;;24.00;97.90;;;;;;4961421;28;20456;-77
2021/06/03 07:47:31;;;;;;;2.63;2.42;;;24.00;96.60;;;;;;4928249;28;20477;-77
2021/06/03 07:49:57;;;;;;;2.20;2.00;;;24.00;98.10;;;;;;4916335;28;20407;-78
2021/06/03 07:52:23;;;;;;;2.40;2.20;;;24.20;97.40;;;;;;4930233;28;20443;-77
2021/06/03 07:54:48;;;;;;;2.08;1.98;;;24.40;96.40;;;;;;4911563;28;20407;-77
2021/06/03 07:57:14;;;;;;;4.90;2.10;;;24.40;94.00;;;;;;4924663;28;20449;-77
2021/06/03 07:59:40;;;;;;;2.53;2.22;;;24.50;92.90;;;;;;4946707;28;20565;-77
2021/06/03 08:02:06;;;;;;;2.55;2.20;;;24.60;92.50;;;;;;4930304;28;20394;-78
2021/06/03 08:04:32;;;;;;;2.00;1.90;;;24.60;91.70;;;;;;4934426;28;20510;-78
2021/06/03 08:06:58;;;;;;;2.67;2.13;;;24.50;90.90;;;;;;4940619;28;20433;-78
2021/06/03 08:09:23;;;;;;;2.00;1.80;;;24.60;88.80;;;;;;4939811;28;20410;-78
2021/06/03 08:11:49;;;;;;;2.00;1.85;;;24.70;89.90;;;;;;4957350;28;20413;-78
2021/06/03 08:14:15;;;;;;;2.80;2.10;;;25.00;87.30;;;;;;4912621;28;20888;-78
2021/06/03 08:16:40;;;;;;;2.00;1.83;;;25.10;89.20;;;;;;4920990;28;20400;-78
2021/06/03 08:19:06;;;;;;;3.33;2.00;;;25.20;87.40;;;;;;4944231;28;20474;-78
2021/06/03 08:21:34;;;;;;;1.77;1.67;;;25.20;83.60;;;;;;4942798;28;20905;-78
2021/06/03 08:24:00;;;;;;;2.63;2.10;;;25.30;85.40;;;;;;4929293;28;21347;-78
2021/06/03 08:26:28;;;;;;;3.95;2.20;;;25.30;84.60;;;;;;4962641;28;20401;-78
2021/06/03 08:28:55;;;;;;;1.90;1.80;;;25.40;82.60;;;;;;4932162;28;20456;-78
2021/06/03 08:31:21;;;;;;;2.40;1.70;;;25.40;83.40;;;;;;4959219;28;20396;-77
2021/06/03 08:33:46;;;;;;;2.03;1.93;;;25.60;83.20;;;;;;4945522;28;20895;-77
2021/06/03 08:36:12;;;;;;;2.83;1.50;;;25.80;81.30;;;;;;4955010;28;20455;-78
2021/06/03 08:38:38;;;;;;;5.50;2.00;;;26.20;83.70;;;;;;4963725;28;20472;-79
2021/06/03 08:41:03;;;;;;;2.43;2.10;;;26.60;80.90;;;;;;4931019;28;20394;-76
2021/06/03 08:43:30;;;;;;;1.80;1.70;;;26.50;78.10;;;;;;4923418;28;20406;-77
2021/06/03 08:45:57;;;;;;;1.83;1.73;;;26.50;76.60;;;;;;4974294;28;20402;-78
2021/06/03 08:48:23;;;;;;;2.20;2.00;;;26.70;78.80;;;;;;4944186;28;20433;-77
2021/06/03 08:50:51;;;;;;;2.15;1.83;;;27.00;77.50;;;;;;4962705;28;20909;-77
2021/06/03 08:53:17;;;;;;;1.90;1.77;;;27.30;80.00;;;;;;4946755;28;20432;-78
2021/06/03 08:58:27;;;;;;;1.80;1.63;;;27.60;74.10;;;;;;4961037;28;20446;-77
2021/06/03 09:00:54;;;;;;;2.05;1.85;;;27.60;73.30;;;;;;4928195;28;20816;-79
2021/06/03 09:03:21;;;;;;;1.70;1.40;;;27.50;70.00;;;;;;4946983;28;20409;-77
2021/06/03 09:05:47;;;;;;;5.80;1.60;;;27.30;68.10;;;;;;4959010;28;20465;-78
2021/06/03 09:08:22;;;;;;;1.75;1.50;;;27.00;67.60;;;;;;4930104;28;20409;-78
2021/06/03 09:10:50;;;;;;;1.70;1.60;;;27.00;65.30;;;;;;4971297;28;21003;-77
2021/06/03 09:13:19;;;;;;;2.10;1.90;;;27.10;64.20;;;;;;4933214;28;20441;-76
2021/06/03 09:15:59;;;;;;;2.30;1.60;;;27.20;65.60;;;;;;4937469;28;20416;-76
2021/06/03 09:18:34;;;;;;;5.05;1.45;;;27.30;68.30;;;;;;4945114;28;20414;-77
2021/06/03 09:21:16;;;;;;;2.35;2.00;;;27.60;62.50;;;;;;4949633;28;20401;-77
2021/06/03 09:23:44;;;;;;;4.60;1.73;;;27.80;64.00;;;;;;4948873;28;20911;-77
2021/06/03 09:26:12;;;;;;;2.20;1.75;;;28.00;62.90;;;;;;4949912;28;20421;-78
2021/06/03 09:28:44;;;;;;;1.40;1.30;;;28.30;64.80;;;;;;4940492;28;20417;-77
2021/06/03 09:31:14;;;;;;;2.17;1.80;;;28.70;61.00;;;;;;4949727;28;20925;-78
2021/06/03 09:33:51;;;;;;;2.30;1.52;;;28.90;59.10;;;;;;4949833;28;20406;-77
2021/06/03 09:36:21;;;;;;;1.60;1.50;;;28.70;58.50;;;;;;4966071;28;20909;-78
2021/06/03 09:39:07;;;;;;;2.33;1.73;;;28.20;58.60;;;;;;4933015;28;20418;-77
2021/06/03 09:41:35;;;;;;;2.40;1.80;;;28.30;60.10;;;;;;4954254;28;20386;-79
2021/06/03 09:44:08;;;;;;;1.80;1.70;;;28.30;58.20;;;;;;4920730;28;20769;-77
2021/06/03 09:46:45;;;;;;;3.10;2.22;;;28.40;58.70;;;;;;4942939;28;20409;-77
2021/06/03 09:49:18;;;;;;;1.63;1.52;;;28.50;56.90;;;;;;4954292;28;20983;-77
2021/06/03 09:51:45;;;;;;;2.20;1.60;;;28.60;58.20;;;;;;4948656;28;20466;-78
2021/06/03 09:54:15;;;;;;;1.70;1.60;;;29.00;58.30;;;;;;4950142;28;20445;-78
2021/06/03 09:56:45;;;;;;;3.10;1.80;;;29.40;58.70;;;;;;4946062;28;20530;-78
2021/06/03 09:59:31;;;;;;;1.75;1.60;;;29.60;56.60;;;;;;4943524;28;20392;-78
2021/06/03 10:02:04;;;;;;;1.87;1.77;;;29.60;55.90;;;;;;4929551;28;20410;-77
2021/06/03 10:04:38;;;;;;;3.10;1.92;;;29.60;55.80;;;;;;4932934;28;20406;-78
2021/06/03 10:07:09;;;;;;;1.90;1.65;;;29.80;57.10;;;;;;4959885;28;20398;-77
2021/06/03 10:09:36;;;;;;;2.38;1.75;;;30.00;56.20;;;;;;4941934;28;20400;-78
2021/06/03 10:12:03;;;;;;;2.30;1.77;;;30.10;53.70;;;;;;4945195;28;20404;-78
2021/06/03 10:14:28;;;;;;;1.70;1.60;;;30.10;55.30;;;;;;4927285;28;20424;-78
2021/06/03 10:16:54;;;;;;;1.67;1.58;;;30.30;56.70;;;;;;4956074;28;20451;-77
2021/06/03 10:19:21;;;;;;;2.10;1.90;;;30.50;55.50;;;;;;4958014;28;20433;-78
2021/06/03 10:22:20;;;;;;;1.70;1.60;;;30.70;55.60;;;;;;4946698;28;20412;-79
2021/06/03 10:24:55;;;;;;;1.77;1.67;;;31.00;55.10;;;;;;4942756;28;20396;-78
2021/06/03 10:27:22;;;;;;;1.90;1.80;;;31.50;55.20;;;;;;4949744;28;20398;-77
2021/06/03 10:29:48;;;;;;;2.22;1.92;;;31.50;52.10;;;;;;4933080;28;20402;-77
2021/06/03 10:32:18;;;;;;;2.22;1.77;;;31.80;53.50;;;;;;4933148;28;20402;-78
2021/06/03 10:34:44;;;;;;;2.15;1.90;;;31.90;54.40;;;;;;4961400;28;20420;-78
2021/06/03 10:37:12;;;;;;;2.50;1.70;;;32.00;51.80;;;;;;4950137;28;20700;-78
2021/06/03 10:39:39;;;;;;;1.70;1.60;;;32.20;52.40;;;;;;4946727;28;20427;-78
2021/06/03 10:42:05;;;;;;;2.10;1.90;;;32.40;51.90;;;;;;4965554;28;20398;-78
2021/06/03 10:44:30;;;;;;;3.73;2.07;;;32.40;49.30;;;;;;4930893;28;20812;-78
2021/06/03 10:46:56;;;;;;;2.03;1.73;;;32.40;50.90;;;;;;4930983;28;20432;-79
2021/06/03 10:49:22;;;;;;;1.70;1.60;;;32.40;50.40;;;;;;4930351;28;20975;-78
2021/06/03 10:51:49;;;;;;;1.80;1.70;;;32.40;50.00;;;;;;4948703;28;20492;-78
2021/06/03 10:54:18;;;;;;;1.87;1.77;;;32.60;52.30;;;;;;4932745;28;20421;-79
2021/06/03 10:56:56;;;;;;;1.75;1.65;;;32.60;49.30;;;;;;4942125;28;20394;-79
2021/06/03 10:59:29;;;;;;;2.10;1.90;;;32.60;49.10;;;;;;4939613;28;20421;-79
2021/06/03 11:01:57;;;;;;;1.57;1.47;;;32.10;47.70;;;;;;4925221;28;21802;-79
2021/06/03 11:04:27;;;;;;;2.03;1.50;;;32.30;47.10;;;;;;4945397;28;20515;-76
2021/06/03 11:06:53;;;;;;;1.70;1.60;;;32.40;49.20;;;;;;4935123;28;21117;-76
2021/06/03 11:09:26;;;;;;;1.70;1.60;;;32.50;48.80;;;;;;4946187;28;20498;-77
2021/06/03 11:12:14;;;;;;;2.45;1.80;;;33.10;51.20;;;;;;4946341;28;20924;-76
2021/06/03 11:14:59;;;;;;;1.48;1.38;;;33.30;48.90;;;;;;4934635;28;20476;-77
2021/06/03 11:17:50;;;;;;;2.17;1.70;;;33.40;47.50;;;;;;4943642;28;20405;-76
2021/06/03 11:20:15;;;;;;;1.77;1.67;;;33.20;47.70;;;;;;4932962;28;20441;-76
2021/06/03 11:22:41;;;;;;;3.83;1.88;;;33.60;48.20;;;;;;4916340;28;20883;-76
2021/06/03 11:25:07;;;;;;;2.10;1.73;;;33.70;46.70;;;;;;4953579;28;20404;-76
2021/06/03 11:27:43;;;;;;;1.70;1.60;;;34.20;47.90;;;;;;4910634;28;20462;-77
2021/06/03 11:30:12;;;;;;;2.10;1.87;;;34.00;47.90;;;;;;4936542;28;20963;-77
2021/06/03 11:32:42;;;;;;;1.75;1.65;;;33.80;46.50;;;;;;4923316;28;20412;-76
2021/06/03 11:35:09;;;;;;;1.83;1.70;;;33.60;45.70;;;;;;4912974;28;20408;-76
2021/06/03 11:37:35;;;;;;;1.52;1.42;;;33.90;47.50;;;;;;4937812;28;20414;-77
2021/06/03 11:40:09;;;;;;;1.77;1.67;;;33.90;45.80;;;;;;4960913;28;20398;-76
2021/06/03 11:42:39;;;;;;;1.50;1.40;;;33.70;46.00;;;;;;4946336;28;20479;-76
2021/06/03 11:45:21;;;;;;;1.95;1.85;;;33.90;46.00;;;;;;4947783;28;20401;-76
2021/06/03 11:47:46;;;;;;;1.65;1.55;;;34.50;45.70;;;;;;4943579;28;20475;-77
2021/06/03 11:50:12;;;;;;;1.70;1.60;;;35.00;45.40;;;;;;4939123;28;20506;-77
2021/06/03 11:52:38;;;;;;;2.00;1.42;;;34.60;43.10;;;;;;4944252;28;20452;-75
2021/06/03 11:55:06;;;;;;;1.80;1.70;;;34.70;42.70;;;;;;4966215;28;21057;-77
2021/06/03 11:57:34;;;;;;;1.50;1.40;;;34.70;44.30;;;;;;4962556;28;20922;-77
2021/06/03 12:00:07;;;;;;;1.90;1.80;;;35.10;45.20;;;;;;4936963;28;20562;-76
2021/06/03 12:02:43;;;;;;;1.50;1.40;;;35.10;43.00;;;;;;4959444;28;20406;-77
2021/06/03 12:05:11;;;;;;;1.70;1.60;;;35.30;43.80;;;;;;4927496;28;20442;-76
2021/06/03 12:07:44;;;;;;;1.60;1.50;;;35.30;41.70;;;;;;4943656;28;20404;-77
2021/06/03 12:10:11;;;;;;;1.80;1.70;;;35.60;42.80;;;;;;4934912;28;20431;-76
2021/06/03 12:12:37;;;;;;;1.50;1.40;;;35.70;40.60;;;;;;4961127;28;20543;-76
2021/06/03 12:15:15;;;;;;;3.72;1.60;;;35.70;42.10;;;;;;4931688;28;20889;-76
2021/06/03 12:17:41;;;;;;;1.83;1.73;;;36.00;43.00;;;;;;4965740;28;20407;-77
2021/06/03 12:20:09;;;;;;;1.63;1.52;;;36.20;40.50;;;;;;4918690;28;20755;-78
2021/06/03 12:22:34;;;;;;;1.80;1.60;;;35.60;38.80;;;;;;4950757;28;20429;-77
2021/06/03 12:25:00;;;;;;;1.60;1.50;;;34.80;39.70;;;;;;4936750;28;20513;-77
2021/06/03 12:27:34;;;;;;;1.80;1.70;;;34.70;42.30;;;;;;4951474;28;20759;-77
2021/06/03 12:30:24;;;;;;;2.37;1.87;;;34.80;41.40;;;;;;4962878;28;20433;-79
2021/06/03 12:33:26;;;;;;;2.20;1.80;;;33.80;38.80;;;;;;4936805;28;20422;-78
2021/06/03 12:35:57;;;;;;;1.90;1.50;;;33.20;40.80;;;;;;4918552;28;20412;-77
2021/06/03 12:38:28;;;;;;;1.70;1.60;;;32.70;41.20;;;;;;4938596;28;20516;-78
2021/06/03 12:40:55;;;;;;;2.47;2.00;;;33.10;45.10;;;;;;4944031;28;20398;-78
2021/06/03 12:43:20;;;;;;;1.55;1.45;;;33.70;42.50;;;;;;4930545;28;20418;-77
2021/06/03 12:45:47;;;;;;;3.40;1.80;;;34.20;42.00;;;;;;4940283;28;20402;-77
2021/06/03 12:48:13;;;;;;;2.40;1.85;;;34.30;41.80;;;;;;4091100;28;10001342;-77
2021/06/03 12:50:47;;;;;;;1.80;1.70;;;34.60;42.20;;;;;;4949019;28;20470;-77
2021/06/03 12:53:17;;;;;;;1.38;1.33;;;34.50;41.60;;;;;;4915873;28;20411;-77
2021/06/03 12:55:43;;;;;;;2.22;1.50;;;35.00;42.20;;;;;;4899137;28;20438;-78